< < Back
Terminal Aerodrome Forecast


Current Version              Previous Versions:   1  2  3  4  5  6  7  8  9  

Terminal Aerodrome Forecast

292
FTUS44 KOHX 241100
TAFBNA
TAF
KBNA 241128Z 2412/2512 15007KT P6SM SCT250
     FM241800 17012G22KT P6SM SCT250
     FM250100 18012G22KT P6SM VCTS SCT050CB BKN100 OVC250
     FM250400 19012G22KT 6SM -TSRA OVC050CB
      TEMPO 2504/2508 2SM -TSRA
     FM250800 21013G25KT 5SM -SHRA SCT015 OVC025CB
      TEMPO 2508/2512 2SM -TSRA BKN015CB OVC025=



Latest METAR

265
SAUS70 KWBC 241800 RRB
MTRBNA
METAR KBNA 241753Z 20007G15KT 10SM OVC200 25/03 A2992 RMK AO2 SLP127
T02500033 10256 20072 56029


USA.gov is the U.S. government's official web portal to all federal, state and local government web resources and services.